createdAt,value
2023-04-18T00:00:10.241Z,10.22
2023-04-18T00:02:44.246Z,10.23
2023-04-18T00:05:13.222Z,10.22
2023-04-18T00:07:41.211Z,10.21
2023-04-18T00:10:09.674Z,10.16
2023-04-18T00:12:37.693Z,10.20
2023-04-18T00:15:08.323Z,10.22
2023-04-18T00:17:38.529Z,10.24
2023-04-18T00:20:10.585Z,10.25
2023-04-18T00:22:42.386Z,10.20
2023-04-18T00:25:11.710Z,10.14
2023-04-18T00:27:39.851Z,10.10
2023-04-18T00:30:09.134Z,10.06
2023-04-18T00:32:38.449Z,10.10
2023-04-18T00:35:08.274Z,10.04
2023-04-18T00:37:35.937Z,10.01
2023-04-18T00:40:05.509Z,10.04
2023-04-18T00:42:33.208Z,10.05
2023-04-18T00:45:00.805Z,10.03
2023-04-18T00:47:28.703Z,9.97
2023-04-18T00:49:56.536Z,9.93
2023-04-18T00:52:27.082Z,9.94
2023-04-18T00:54:55.452Z,9.89
2023-04-18T00:57:23.491Z,9.94
2023-04-18T00:59:51.358Z,10.01
2023-04-18T01:02:20.030Z,10.05
2023-04-18T01:04:47.760Z,10.03
2023-04-18T01:07:15.908Z,10.00
2023-04-18T01:09:45.580Z,9.98
2023-04-18T01:12:13.900Z,9.98
2023-04-18T01:14:42.480Z,10.03
2023-04-18T01:17:10.947Z,10.03
2023-04-18T01:19:39.356Z,10.04
2023-04-18T01:22:08.503Z,10.07
2023-04-18T01:24:37.426Z,10.06
2023-04-18T01:27:05.966Z,10.07
2023-04-18T01:29:34.814Z,10.05
2023-04-18T01:32:02.968Z,10.03
2023-04-18T01:34:30.571Z,9.92
2023-04-18T01:36:58.293Z,9.92
2023-04-18T01:39:26.115Z,9.74
2023-04-18T01:41:55.265Z,9.71
2023-04-18T01:44:22.884Z,9.69
2023-04-18T01:46:50.730Z,9.67
2023-04-18T01:49:18.345Z,9.63
2023-04-18T01:51:46.023Z,9.63
2023-04-18T01:54:15.208Z,9.62
2023-04-18T01:56:43.297Z,9.70
2023-04-18T01:59:12.472Z,9.55
2023-04-18T02:01:40.252Z,9.56
2023-04-18T02:04:08.024Z,9.62
2023-04-18T02:06:35.966Z,9.61
2023-04-18T02:09:03.560Z,9.56
2023-04-18T02:11:31.418Z,9.52
2023-04-18T02:13:59.547Z,9.59
2023-04-18T02:16:28.870Z,9.53
2023-04-18T02:18:56.476Z,9.61
2023-04-18T02:21:24.542Z,9.67
2023-04-18T02:23:52.178Z,9.59
2023-04-18T02:26:22.771Z,9.50
2023-04-18T02:28:50.694Z,9.47
2023-04-18T02:31:18.520Z,9.37
2023-04-18T02:33:47.937Z,9.29
2023-04-18T02:36:16.073Z,9.25
2023-04-18T02:38:44.909Z,9.32
2023-04-18T02:41:15.144Z,9.35
2023-04-18T02:43:43.085Z,9.29
2023-04-18T02:46:10.857Z,9.33
2023-04-18T02:48:38.812Z,9.26
2023-04-18T02:51:10.744Z,9.35
2023-04-18T02:53:39.232Z,9.22
2023-04-18T02:56:08.376Z,9.19
2023-04-18T02:58:54.845Z,9.10
2023-04-18T03:01:56.277Z,9.22
2023-04-18T03:04:24.594Z,9.28
2023-04-18T03:07:00.320Z,9.12
2023-04-18T03:09:30.884Z,9.16
2023-04-18T03:12:03.968Z,9.16
2023-04-18T03:14:32.482Z,9.23
2023-04-18T03:17:00.602Z,9.04
2023-04-18T03:19:34.759Z,8.94
2023-04-18T03:22:09.125Z,9.02
2023-04-18T03:24:42.891Z,8.93
2023-04-18T03:27:13.767Z,8.86
2023-04-18T03:29:44.210Z,8.98
2023-04-18T03:32:12.563Z,8.95
2023-04-18T03:34:40.528Z,8.93
2023-04-18T03:37:11.062Z,8.92
2023-04-18T03:39:44.811Z,8.75
2023-04-18T03:42:12.624Z,8.80
2023-04-18T03:44:42.796Z,8.81
2023-04-18T03:47:10.974Z,8.90
2023-04-18T03:49:42.486Z,8.73
2023-04-18T03:52:11.576Z,8.76
2023-04-18T03:54:39.384Z,8.71
2023-04-18T03:57:07.172Z,8.74
2023-04-18T03:59:37.070Z,8.80
2023-04-18T04:02:04.830Z,8.76
2023-04-18T04:04:32.940Z,8.75
2023-04-18T04:07:00.934Z,8.78
2023-04-18T04:09:29.931Z,8.65
2023-04-18T04:11:57.573Z,8.70
2023-04-18T04:14:25.756Z,8.82
2023-04-18T04:16:54.136Z,8.73
2023-04-18T04:19:23.032Z,8.79
2023-04-18T04:22:04.315Z,8.66
2023-04-18T04:24:35.406Z,8.72
2023-04-18T04:27:03.668Z,8.61
2023-04-18T04:29:32.532Z,8.61
2023-04-18T04:32:00.504Z,8.73
2023-04-18T04:34:35.664Z,8.78
2023-04-18T04:37:05.518Z,8.77
2023-04-18T04:39:41.432Z,8.63
2023-04-18T04:42:28.501Z,8.61
2023-04-18T04:45:12.778Z,8.70
2023-04-18T04:47:40.980Z,8.72
2023-04-18T04:50:14.584Z,8.72
2023-04-18T04:52:42.535Z,8.72
2023-04-18T04:55:11.774Z,8.74
2023-04-18T04:57:41.308Z,8.72
2023-04-18T05:00:25.633Z,8.63
2023-04-18T05:02:54.502Z,8.58
2023-04-18T05:05:23.501Z,8.64
2023-04-18T05:07:51.433Z,8.64
2023-04-18T05:10:20.753Z,8.75
2023-04-18T05:12:48.598Z,8.76
2023-04-18T05:15:16.983Z,8.77
2023-04-18T05:17:44.622Z,8.79
2023-04-18T05:20:12.804Z,8.78
2023-04-18T05:22:40.486Z,8.87
2023-04-18T05:25:08.998Z,8.82
2023-04-18T05:27:37.957Z,8.95
2023-04-18T05:30:06.798Z,9.00
2023-04-18T05:32:34.485Z,9.02
2023-04-18T05:35:02.369Z,9.07
2023-04-18T05:37:30.013Z,9.04
2023-04-18T05:39:59.909Z,8.99
2023-04-18T05:42:28.296Z,8.94
2023-04-18T05:44:57.676Z,9.04
2023-04-18T05:47:26.856Z,8.94
2023-04-18T05:49:54.646Z,8.95
2023-04-18T05:52:22.271Z,8.98
2023-04-18T05:54:50.073Z,8.91
2023-04-18T05:57:17.699Z,8.97
2023-04-18T05:59:45.833Z,9.06
2023-04-18T06:02:14.898Z,9.05
2023-04-18T06:04:43.483Z,9.09
2023-04-18T06:07:11.439Z,9.05
2023-04-18T06:09:39.169Z,8.74
2023-04-18T06:12:07.005Z,8.78
2023-04-18T06:14:34.808Z,8.88
2023-04-18T06:17:02.492Z,8.79
2023-04-18T06:19:31.436Z,8.97
2023-04-18T06:21:59.047Z,9.09
2023-04-18T06:24:26.746Z,9.10
2023-04-18T06:26:55.132Z,9.20
2023-04-18T06:29:23.214Z,9.18
2023-04-18T06:31:52.058Z,9.14
2023-04-18T06:34:19.744Z,9.21
2023-04-18T06:36:49.152Z,9.20
2023-04-18T06:39:16.989Z,9.15
2023-04-18T06:41:44.595Z,9.24
2023-04-18T06:44:17.150Z,9.18
2023-04-18T06:46:44.794Z,9.26
2023-04-18T06:49:12.455Z,9.24
2023-04-18T06:51:40.279Z,9.14
2023-04-18T06:54:09.275Z,9.17
2023-04-18T06:56:37.076Z,9.22
2023-04-18T06:59:04.797Z,9.27
2023-04-18T07:01:33.802Z,9.18
2023-04-18T07:04:01.783Z,9.41
2023-04-18T07:06:29.574Z,9.38
2023-04-18T07:09:00.115Z,9.43
2023-04-18T07:11:29.789Z,9.34
2023-04-18T07:13:57.396Z,9.38
2023-04-18T07:16:25.230Z,9.35
2023-04-18T07:18:52.853Z,9.52
2023-04-18T07:21:20.624Z,9.47
2023-04-18T07:23:48.204Z,9.67
2023-04-18T07:26:15.849Z,9.81
2023-04-18T07:28:44.803Z,9.95
2023-04-18T07:31:14.465Z,10.08
2023-04-18T07:33:43.260Z,10.10
2023-04-18T07:36:11.097Z,10.24
2023-04-18T07:38:38.709Z,10.24
2023-04-18T07:41:06.324Z,10.29
2023-04-18T07:43:33.907Z,10.44
2023-04-18T07:46:03.312Z,10.28
2023-04-18T07:48:31.425Z,10.62
2023-04-18T07:50:59.191Z,10.47
2023-04-18T07:53:26.806Z,10.65
2023-04-18T07:55:55.344Z,10.76
2023-04-18T07:58:23.001Z,10.63
2023-04-18T08:00:50.816Z,10.46
2023-04-18T08:03:20.020Z,10.51
2023-04-18T08:05:49.041Z,10.92
2023-04-18T08:08:17.962Z,10.95
2023-04-18T08:10:46.081Z,11.05
2023-04-18T08:13:14.052Z,11.52
2023-04-18T08:15:42.248Z,11.28
2023-04-18T08:18:09.950Z,11.57
2023-04-18T08:20:38.943Z,11.64
2023-04-18T08:23:10.391Z,11.93
2023-04-18T08:25:40.017Z,11.84
2023-04-18T08:28:07.791Z,12.37
2023-04-18T08:30:35.973Z,12.99
2023-04-18T08:33:03.761Z,13.42
2023-04-18T08:35:31.450Z,13.45
2023-04-18T08:38:02.707Z,13.00
2023-04-18T08:40:30.953Z,12.92
2023-04-18T08:42:58.690Z,13.01
2023-04-18T08:45:26.857Z,13.17
2023-04-18T08:47:55.995Z,13.36
2023-04-18T08:50:24.074Z,13.96
2023-04-18T08:52:52.204Z,14.15
2023-04-18T08:55:22.446Z,14.20
2023-04-18T08:57:54.104Z,13.68
2023-04-18T09:00:23.897Z,13.59
2023-04-18T09:02:56.475Z,13.42
2023-04-18T09:05:26.986Z,13.22
2023-04-18T09:07:56.238Z,13.07
2023-04-18T09:10:32.507Z,12.88
2023-04-18T09:13:02.993Z,13.15
2023-04-18T09:15:31.718Z,13.12
2023-04-18T09:18:02.211Z,12.85
2023-04-18T09:20:35.858Z,12.80
2023-04-18T09:23:04.956Z,12.95
2023-04-18T09:25:39.839Z,13.07
2023-04-18T09:28:24.116Z,13.28
2023-04-18T09:30:53.203Z,13.76
2023-04-18T09:33:28.121Z,13.70
2023-04-18T09:35:55.970Z,13.48
2023-04-18T09:38:39.973Z,13.02
2023-04-18T09:41:13.517Z,12.89
2023-04-18T09:43:41.798Z,12.94
2023-04-18T09:46:10.036Z,12.76
2023-04-18T09:48:37.892Z,12.85
2023-04-18T09:51:07.941Z,12.78
2023-04-18T09:53:39.401Z,12.74
2023-04-18T09:56:08.153Z,12.91
2023-04-18T09:58:41.622Z,13.14
2023-04-18T10:01:09.799Z,12.65
2023-04-18T10:03:45.334Z,12.87
2023-04-18T10:06:16.451Z,12.97
2023-04-18T10:08:45.319Z,12.77
2023-04-18T10:11:13.326Z,12.67
2023-04-18T10:13:45.592Z,12.82
2023-04-18T10:16:14.409Z,12.94
2023-04-18T10:18:43.819Z,13.08
2023-04-18T10:21:11.827Z,13.04
2023-04-18T10:23:40.461Z,12.91
2023-04-18T10:26:09.023Z,13.22
2023-04-18T10:28:55.185Z,13.06
2023-04-18T10:31:23.774Z,13.21
2023-04-18T10:34:03.940Z,13.30
2023-04-18T10:36:32.912Z,13.26
2023-04-18T10:39:03.148Z,13.17
2023-04-18T10:41:32.512Z,13.18
2023-04-18T10:44:18.176Z,13.10
2023-04-18T10:47:19.723Z,13.27
2023-04-18T10:49:58.761Z,13.61
2023-04-18T10:52:31.370Z,13.92
2023-04-18T10:55:12.041Z,14.17
2023-04-18T10:57:41.169Z,14.33
2023-04-18T11:00:13.850Z,14.58
2023-04-18T11:02:48.789Z,14.79
2023-04-18T11:05:20.595Z,14.88
2023-04-18T11:07:48.860Z,15.02
2023-04-18T11:10:19.309Z,15.55
2023-04-18T11:12:48.828Z,15.91
2023-04-18T11:15:21.516Z,16.03
2023-04-18T11:18:01.579Z,16.49
2023-04-18T11:20:30.251Z,16.57
2023-04-18T11:22:59.571Z,16.89
2023-04-18T11:25:29.291Z,16.70
2023-04-18T11:27:59.949Z,16.19
2023-04-18T11:30:31.303Z,16.20
2023-04-18T11:32:59.046Z,16.08
2023-04-18T11:35:26.970Z,15.78
2023-04-18T11:37:55.444Z,15.64
2023-04-18T11:40:23.142Z,15.23
2023-04-18T11:42:50.787Z,15.18
2023-04-18T11:45:18.502Z,15.08
2023-04-18T11:47:47.577Z,14.98
2023-04-18T11:50:15.311Z,14.72
2023-04-18T11:52:43.436Z,14.71
2023-04-18T11:55:14.030Z,14.64
2023-04-18T11:57:42.178Z,14.52
2023-04-18T12:00:12.241Z,14.15
2023-04-18T12:02:42.648Z,14.04
2023-04-18T12:05:15.037Z,13.98
2023-04-18T12:07:45.955Z,13.97
2023-04-18T12:10:25.943Z,13.87
2023-04-18T12:12:55.055Z,13.69
2023-04-18T12:15:26.914Z,13.77
2023-04-18T12:17:59.298Z,13.78
2023-04-18T12:20:34.761Z,13.91
2023-04-18T12:23:03.396Z,13.79
2023-04-18T12:25:31.634Z,13.65
2023-04-18T12:28:00.908Z,13.86
2023-04-18T12:30:29.755Z,14.25
2023-04-18T12:33:00.062Z,14.21
2023-04-18T12:35:30.443Z,14.37
2023-04-18T12:37:59.923Z,14.54
2023-04-18T12:40:28.300Z,14.45
2023-04-18T12:42:57.095Z,14.59
2023-04-18T12:45:25.347Z,14.66
2023-04-18T12:47:53.758Z,14.88
2023-04-18T12:50:22.730Z,14.89
2023-04-18T12:52:53.495Z,14.98
2023-04-18T12:55:21.758Z,15.22
2023-04-18T12:57:51.909Z,14.98
2023-04-18T13:00:19.881Z,14.60
2023-04-18T13:02:47.853Z,14.54
2023-04-18T13:05:17.552Z,14.48
2023-04-18T13:07:47.282Z,14.50
2023-04-18T13:10:19.588Z,14.66
2023-04-18T13:12:47.810Z,14.40
2023-04-18T13:15:15.941Z,14.43
2023-04-18T13:17:44.693Z,14.45
2023-04-18T13:20:13.651Z,14.32
2023-04-18T13:22:42.554Z,14.35
2023-04-18T13:25:11.807Z,14.23
2023-04-18T13:27:42.554Z,14.28
2023-04-18T13:30:11.834Z,14.27
2023-04-18T13:32:40.514Z,14.29
2023-04-18T13:35:09.564Z,14.38
2023-04-18T13:37:37.836Z,14.14
2023-04-18T13:40:06.927Z,14.16
2023-04-18T13:42:35.200Z,14.39
2023-04-18T13:45:04.722Z,14.76
2023-04-18T13:47:32.506Z,15.33
2023-04-18T13:50:00.335Z,15.88
2023-04-18T13:52:27.976Z,16.24
2023-04-18T13:54:55.825Z,15.84
2023-04-18T13:57:23.459Z,15.81
2023-04-18T13:59:51.178Z,15.94
2023-04-18T14:02:20.207Z,16.19
2023-04-18T14:04:48.071Z,16.07
2023-04-18T14:07:16.464Z,15.95
2023-04-18T14:09:44.678Z,16.02
2023-04-18T14:12:12.234Z,15.93
2023-04-18T14:14:39.824Z,15.60
2023-04-18T14:17:07.439Z,15.45
2023-04-18T14:19:36.386Z,15.26
2023-04-18T14:22:03.941Z,15.12
2023-04-18T14:24:31.576Z,15.03
2023-04-18T14:26:59.188Z,14.97
2023-04-18T14:29:27.154Z,14.79
2023-04-18T14:31:54.731Z,14.64
2023-04-18T14:34:22.309Z,14.46
2023-04-18T14:36:51.273Z,14.37
2023-04-18T14:39:19.128Z,14.26
2023-04-18T14:41:46.698Z,14.42
2023-04-18T14:44:14.572Z,14.30
2023-04-18T14:46:43.368Z,14.13
2023-04-18T14:49:11.111Z,13.94
2023-04-18T14:51:38.983Z,13.84
2023-04-18T14:54:07.971Z,13.79
2023-04-18T14:56:36.102Z,13.85
2023-04-18T14:59:03.818Z,13.88
2023-04-18T15:01:31.520Z,13.69
2023-04-18T15:03:59.406Z,13.62
2023-04-18T15:06:28.357Z,13.54
2023-04-18T15:08:56.627Z,13.54
2023-04-18T15:11:27.093Z,13.59
2023-04-18T15:13:54.759Z,13.51
2023-04-18T15:16:22.372Z,13.51
2023-04-18T15:18:50.029Z,13.36
2023-04-18T15:21:17.586Z,13.59
2023-04-18T15:23:45.256Z,13.48
2023-04-18T15:26:12.839Z,13.55
2023-04-18T15:28:41.905Z,13.51
2023-04-18T15:31:10.838Z,13.54
2023-04-18T15:33:38.562Z,13.57
2023-04-18T15:36:06.749Z,13.59
2023-04-18T15:38:34.404Z,13.59
2023-04-18T15:41:02.071Z,13.53
2023-04-18T15:43:29.780Z,13.34
2023-04-18T15:45:58.922Z,13.27
2023-04-18T15:48:27.121Z,13.27
2023-04-18T15:50:54.989Z,13.35
2023-04-18T15:53:22.734Z,13.35
2023-04-18T15:55:50.839Z,13.25
2023-04-18T15:58:20.527Z,12.97
2023-04-18T16:00:49.909Z,13.09
2023-04-18T16:03:19.404Z,13.02
2023-04-18T16:05:47.566Z,12.87
2023-04-18T16:08:15.328Z,12.92
2023-04-18T16:10:43.042Z,12.88
2023-04-18T16:13:10.750Z,12.88
2023-04-18T16:15:41.399Z,12.87
2023-04-18T16:18:09.467Z,12.69
2023-04-18T16:20:38.538Z,12.71
2023-04-18T16:23:06.391Z,12.67
2023-04-18T16:25:33.960Z,12.66
2023-04-18T16:28:01.549Z,12.60
2023-04-18T16:30:29.216Z,12.65
2023-04-18T16:32:56.939Z,12.64
2023-04-18T16:35:24.848Z,12.57
2023-04-18T16:37:53.858Z,12.59
2023-04-18T16:40:21.910Z,12.51
2023-04-18T16:42:49.569Z,12.54
2023-04-18T16:45:17.526Z,12.53
2023-04-18T16:47:45.189Z,12.39
2023-04-18T16:50:12.929Z,12.43
2023-04-18T16:52:40.967Z,12.44
2023-04-18T16:55:10.889Z,12.35
2023-04-18T16:57:38.545Z,12.31
2023-04-18T17:00:10.168Z,12.31
2023-04-18T17:02:39.588Z,12.26
2023-04-18T17:05:07.906Z,12.22
2023-04-18T17:07:35.521Z,12.21
2023-04-18T17:10:03.538Z,12.12
2023-04-18T17:12:32.462Z,12.02
2023-04-18T17:15:00.165Z,11.94
2023-04-18T17:17:27.772Z,12.09
2023-04-18T17:19:56.101Z,12.10
2023-04-18T17:22:23.820Z,12.11
2023-04-18T17:24:51.663Z,12.17
2023-04-18T17:27:19.422Z,12.07
2023-04-18T17:29:48.583Z,11.89
2023-04-18T17:32:16.205Z,12.04
2023-04-18T17:34:43.894Z,11.91
2023-04-18T17:37:12.073Z,11.95
2023-04-18T17:39:39.925Z,11.95
2023-04-18T17:42:07.489Z,11.94
2023-04-18T17:44:35.084Z,11.97
2023-04-18T17:47:03.998Z,11.93
2023-04-18T17:49:34.853Z,11.95
2023-04-18T17:52:02.503Z,11.96
2023-04-18T17:54:30.438Z,11.94
2023-04-18T17:56:58.297Z,11.95
2023-04-18T17:59:26.076Z,11.96
2023-04-18T18:01:53.735Z,11.92
2023-04-18T18:04:24.794Z,11.85
2023-04-18T18:06:55.238Z,11.76
2023-04-18T18:09:23.164Z,11.72
2023-04-18T18:11:50.744Z,11.73
2023-04-18T18:14:18.465Z,11.67
2023-04-18T18:16:46.143Z,11.60
2023-04-18T18:19:14.742Z,11.46
2023-04-18T18:21:43.951Z,11.52
2023-04-18T18:24:11.521Z,11.50
2023-04-18T18:26:39.117Z,11.56
2023-04-18T18:29:09.800Z,11.57
2023-04-18T18:31:37.483Z,11.54
2023-04-18T18:34:05.402Z,11.53
2023-04-18T18:36:33.078Z,11.52
2023-04-18T18:39:02.258Z,11.53
2023-04-18T18:41:29.868Z,11.42
2023-04-18T18:43:57.582Z,11.46
2023-04-18T18:46:25.284Z,11.44
2023-04-18T18:48:53.167Z,11.42
2023-04-18T18:51:20.854Z,11.40
2023-04-18T18:53:48.442Z,11.30
2023-04-18T18:56:17.851Z,11.30
2023-04-18T18:58:45.452Z,11.29
2023-04-18T19:01:13.191Z,11.30
2023-04-18T19:03:41.013Z,11.32
2023-04-18T19:06:08.974Z,11.33
2023-04-18T19:08:36.635Z,11.36
2023-04-18T19:11:04.311Z,11.33
2023-04-18T19:13:33.429Z,11.34
2023-04-18T19:16:01.095Z,11.31
2023-04-18T19:18:28.839Z,11.24
2023-04-18T19:20:56.426Z,11.15
2023-04-18T19:23:25.224Z,11.14
2023-04-18T19:25:53.182Z,11.18
2023-04-18T19:28:22.517Z,11.17
2023-04-18T19:30:53.022Z,11.24
2023-04-18T19:33:21.141Z,11.16
2023-04-18T19:35:48.768Z,11.19
2023-04-18T19:38:16.388Z,11.17
2023-04-18T19:40:44.124Z,11.14
2023-04-18T19:43:11.724Z,11.22
2023-04-18T19:45:41.878Z,11.18
2023-04-18T19:48:13.796Z,11.25
2023-04-18T19:50:47.097Z,11.25
2023-04-18T19:53:19.640Z,11.24
2023-04-18T19:55:55.756Z,11.14
2023-04-18T19:58:36.790Z,11.05
2023-04-18T20:01:06.025Z,11.04
2023-04-18T20:03:35.219Z,11.07
2023-04-18T20:06:05.518Z,10.95
2023-04-18T20:08:33.394Z,11.04
2023-04-18T20:11:01.011Z,10.98
2023-04-18T20:13:28.643Z,11.04
2023-04-18T20:15:56.283Z,11.04
2023-04-18T20:18:24.848Z,11.04
2023-04-18T20:20:53.792Z,10.95
2023-04-18T20:23:21.467Z,10.91
2023-04-18T20:25:49.176Z,10.82
2023-04-18T20:28:16.784Z,10.80
2023-04-18T20:30:44.844Z,10.90
2023-04-18T20:33:12.479Z,10.88
2023-04-18T20:35:40.520Z,10.89
2023-04-18T20:38:11.122Z,10.95
2023-04-18T20:40:39.939Z,10.88
2023-04-18T20:43:07.989Z,10.87
2023-04-18T20:45:37.540Z,10.95
2023-04-18T20:48:06.390Z,10.85
2023-04-18T20:50:34.145Z,10.94
2023-04-18T20:53:02.195Z,10.73
2023-04-18T20:55:31.330Z,10.85
2023-04-18T20:57:59.492Z,10.74
2023-04-18T21:00:27.565Z,10.77
2023-04-18T21:02:55.332Z,10.77
2023-04-18T21:05:23.327Z,10.79
2023-04-18T21:07:50.902Z,10.85
2023-04-18T21:10:18.619Z,10.78
2023-04-18T21:12:47.670Z,10.81
2023-04-18T21:15:15.317Z,10.79
2023-04-18T21:17:43.181Z,10.76
2023-04-18T21:20:11.102Z,10.74
2023-04-18T21:22:38.840Z,10.74
2023-04-18T21:25:07.709Z,10.79
2023-04-18T21:27:35.467Z,10.73
2023-04-18T21:30:05.171Z,10.69
2023-04-18T21:32:32.887Z,10.63
2023-04-18T21:35:01.442Z,10.58
2023-04-18T21:37:29.086Z,10.56
2023-04-18T21:39:56.652Z,10.46
2023-04-18T21:42:24.351Z,10.48
2023-04-18T21:44:51.928Z,10.48
2023-04-18T21:47:21.024Z,10.53
2023-04-18T21:49:49.433Z,10.42
2023-04-18T21:52:17.259Z,10.40
2023-04-18T21:54:44.860Z,10.30
2023-04-18T21:57:12.570Z,10.26
2023-04-18T21:59:40.139Z,10.21
2023-04-18T22:02:07.933Z,10.29
2023-04-18T22:04:38.023Z,10.29
2023-04-18T22:07:06.541Z,10.30
2023-04-18T22:09:36.182Z,10.32
2023-04-18T22:12:04.223Z,10.31
2023-04-18T22:14:32.596Z,10.29
2023-04-18T22:17:04.657Z,10.22
2023-04-18T22:19:32.368Z,10.32
2023-04-18T22:22:01.582Z,10.22
2023-04-18T22:24:29.175Z,10.27
2023-04-18T22:26:56.878Z,10.23
2023-04-18T22:29:24.470Z,10.18
2023-04-18T22:31:52.205Z,10.12
2023-04-18T22:34:19.798Z,10.14
2023-04-18T22:36:47.754Z,10.07
2023-04-18T22:39:16.694Z,10.13
2023-04-18T22:41:44.397Z,10.13
2023-04-18T22:44:12.008Z,10.06
2023-04-18T22:46:39.802Z,10.13
2023-04-18T22:49:07.430Z,10.16
2023-04-18T22:51:35.308Z,10.14
2023-04-18T22:54:02.906Z,10.11
2023-04-18T22:56:31.970Z,10.12
2023-04-18T22:58:59.561Z,10.14
2023-04-18T23:01:27.309Z,10.13
2023-04-18T23:03:55.177Z,10.16
2023-04-18T23:06:23.149Z,10.15
2023-04-18T23:08:50.870Z,10.12
2023-04-18T23:11:18.564Z,10.16
2023-04-18T23:13:47.601Z,10.00
2023-04-18T23:16:15.296Z,10.04
2023-04-18T23:18:43.242Z,10.02
2023-04-18T23:21:10.832Z,10.06
2023-04-18T23:23:38.665Z,10.05
2023-04-18T23:26:13.632Z,10.03
2023-04-18T23:28:41.724Z,10.04
2023-04-18T23:31:11.057Z,10.03
2023-04-18T23:33:38.882Z,10.03
2023-04-18T23:36:07.292Z,10.00
2023-04-18T23:38:37.256Z,10.00
2023-04-18T23:41:05.020Z,9.97
2023-04-18T23:43:32.993Z,9.94
2023-04-18T23:46:00.626Z,9.94
2023-04-18T23:48:29.756Z,9.91
2023-04-18T23:50:57.493Z,9.90
2023-04-18T23:53:25.381Z,9.87
2023-04-18T23:55:54.257Z,9.88
2023-04-18T23:58:21.976Z,9.86
